sensor_id;sensor_type;location;lat;lon;timestamp;pressure;altitude;pressure_sealevel;temperature;humidity
7058;BME280;3570;43.080;25.628;2023-06-22T00:01:10;-20051.53;;;20.59;100.00
7058;BME280;3570;43.080;25.628;2023-06-22T00:03:54;-20051.41;;;20.59;100.00
7058;BME280;3570;43.080;25.628;2023-06-22T00:06:38;-20045.44;;;20.38;100.00
7058;BME280;3570;43.080;25.628;2023-06-22T00:09:22;-20051.41;;;20.59;100.00
7058;BME280;3570;43.080;25.628;2023-06-22T00:12:07;-20041.84;;;20.26;100.00
7058;BME280;3570;43.080;25.628;2023-06-22T00:14:51;-20064.16;;;21.03;100.00
7058;BME280;3570;43.080;25.628;2023-06-22T00:17:35;-20044.72;;;20.36;100.00
7058;BME280;3570;43.080;25.628;2023-06-22T00:20:19;-20046.31;;;20.41;100.00
7058;BME280;3570;43.080;25.628;2023-06-22T00:23:04;-20036.63;;;20.08;100.00
7058;BME280;3570;43.080;25.628;2023-06-22T00:25:52;-20025.31;;;19.68;100.00
7058;BME280;3570;43.080;25.628;2023-06-22T00:28:36;-20020.94;;;19.53;100.00
7058;BME280;3570;43.080;25.628;2023-06-22T00:31:20;-20017.47;;;19.41;100.00
7058;BME280;3570;43.080;25.628;2023-06-22T00:34:04;-20021.81;;;19.56;100.00
7058;BME280;3570;43.080;25.628;2023-06-22T00:36:50;-20030.53;;;19.87;100.00
7058;BME280;3570;43.080;25.628;2023-06-22T00:39:35;-20036.47;;;20.07;100.00
7058;BME280;3570;43.080;25.628;2023-06-22T00:42:19;-20018.63;;;19.45;100.00
7058;BME280;3570;43.080;25.628;2023-06-22T00:45:03;-20040.66;;;20.22;100.00
7058;BME280;3570;43.080;25.628;2023-06-22T00:47:47;-20030.22;;;19.86;100.00
7058;BME280;3570;43.080;25.628;2023-06-22T00:50:33;-20044.44;;;20.35;100.00
7058;BME280;3570;43.080;25.628;2023-06-22T00:53:18;-20025.31;;;19.68;100.00
7058;BME280;3570;43.080;25.628;2023-06-22T00:56:02;-20029.78;;;19.84;100.00
7058;BME280;3570;43.080;25.628;2023-06-22T00:58:47;-20032.13;;;19.92;100.00
7058;BME280;3570;43.080;25.628;2023-06-22T01:01:31;-20030.66;;;19.87;100.00
7058;BME280;3570;43.080;25.628;2023-06-22T01:04:15;-20036.03;;;20.06;100.00
7058;BME280;3570;43.080;25.628;2023-06-22T01:12:52;-20031.69;;;19.91;100.00
7058;BME280;3570;43.080;25.628;2023-06-22T01:15:42;-20038.34;;;20.14;100.00
7058;BME280;3570;43.080;25.628;2023-06-22T01:18:30;-20043.13;;;20.30;100.00
7058;BME280;3570;43.080;25.628;2023-06-22T01:21:16;-20045.31;;;20.38;100.00
7058;BME280;3570;43.080;25.628;2023-06-22T01:27:18;-20041.25;;;20.24;100.00
7058;BME280;3570;43.080;25.628;2023-06-22T01:30:07;-20046.03;;;20.40;100.00
7058;BME280;3570;43.080;25.628;2023-06-22T01:32:57;-20041.53;;;20.25;100.00
7058;BME280;3570;43.080;25.628;2023-06-22T01:35:42;-20046.19;;;20.41;100.00
7058;BME280;3570;43.080;25.628;2023-06-22T01:38:28;-20036.91;;;20.09;100.00
7058;BME280;3570;43.080;25.628;2023-06-22T01:41:12;-20040.66;;;20.22;100.00
7058;BME280;3570;43.080;25.628;2023-06-22T01:43:56;-20035.31;;;20.03;100.00
7058;BME280;3570;43.080;25.628;2023-06-22T01:46:41;-20041.69;;;20.25;100.00
7058;BME280;3570;43.080;25.628;2023-06-22T01:49:25;-20040.97;;;20.23;100.00
7058;BME280;3570;43.080;25.628;2023-06-22T01:52:10;-20034.56;;;20.01;100.00
7058;BME280;3570;43.080;25.628;2023-06-22T01:54:54;-20041.41;;;20.24;100.00
7058;BME280;3570;43.080;25.628;2023-06-22T01:57:38;-20034.56;;;20.01;100.00
7058;BME280;3570;43.080;25.628;2023-06-22T02:00:25;-20035.44;;;20.04;100.00
7058;BME280;3570;43.080;25.628;2023-06-22T02:03:15;-20035.44;;;20.04;100.00
7058;BME280;3570;43.080;25.628;2023-06-22T02:06:05;-20042.69;;;20.29;100.00
7058;BME280;3570;43.080;25.628;2023-06-22T02:09:00;-20041.09;;;20.23;100.00
7058;BME280;3570;43.080;25.628;2023-06-22T02:11:46;-20041.41;;;20.24;100.00
7058;BME280;3570;43.080;25.628;2023-06-22T02:14:32;-20036.03;;;20.06;100.00
7058;BME280;3570;43.080;25.628;2023-06-22T02:17:18;-20039.66;;;20.18;100.00
7058;BME280;3570;43.080;25.628;2023-06-22T02:20:03;-20043.00;;;20.30;100.00
7058;BME280;3570;43.080;25.628;2023-06-22T02:22:52;-20044.88;;;20.36;100.00
7058;BME280;3570;43.080;25.628;2023-06-22T02:25:36;-20044.31;;;20.34;100.00
7058;BME280;3570;43.080;25.628;2023-06-22T02:28:20;-20040.97;;;20.23;100.00
7058;BME280;3570;43.080;25.628;2023-06-22T02:31:04;-20040.97;;;20.23;100.00
7058;BME280;3570;43.080;25.628;2023-06-22T02:33:47;-20029.66;;;19.84;100.00
7058;BME280;3570;43.080;25.628;2023-06-22T02:36:32;-20030.53;;;19.87;100.00
7058;BME280;3570;43.080;25.628;2023-06-22T02:39:21;-20031.38;;;19.90;100.00
7058;BME280;3570;43.080;25.628;2023-06-22T02:42:06;-20028.19;;;19.79;100.00
7058;BME280;3570;43.080;25.628;2023-06-22T02:44:50;-20038.78;;;20.15;100.00
7058;BME280;3570;43.080;25.628;2023-06-22T02:47:34;-20040.38;;;20.21;100.00
7058;BME280;3570;43.080;25.628;2023-06-22T02:50:18;-20032.69;;;19.94;100.00
7058;BME280;3570;43.080;25.628;2023-06-22T02:53:02;-20040.53;;;20.21;100.00
7058;BME280;3570;43.080;25.628;2023-06-22T02:55:46;-20039.81;;;20.19;100.00
7058;BME280;3570;43.080;25.628;2023-06-22T02:58:31;-20037.19;;;20.10;100.00
7058;BME280;3570;43.080;25.628;2023-06-22T03:01:21;-20032.84;;;19.95;100.00
7058;BME280;3570;43.080;25.628;2023-06-22T03:04:08;-20040.53;;;20.21;100.00
7058;BME280;3570;43.080;25.628;2023-06-22T03:06:52;-20040.66;;;20.22;100.00
7058;BME280;3570;43.080;25.628;2023-06-22T03:09:36;-20034.00;;;19.99;100.00
7058;BME280;3570;43.080;25.628;2023-06-22T03:12:20;-20039.22;;;20.17;100.00
7058;BME280;3570;43.080;25.628;2023-06-22T03:15:10;-20027.03;;;19.75;100.00
7058;BME280;3570;43.080;25.628;2023-06-22T03:17:54;-20023.41;;;19.62;100.00
7058;BME280;3570;43.080;25.628;2023-06-22T03:20:38;-20020.50;;;19.52;100.00
7058;BME280;3570;43.080;25.628;2023-06-22T03:23:22;-20005.72;;;19.01;100.00
7058;BME280;3570;43.080;25.628;2023-06-22T03:26:06;-20016.75;;;19.39;100.00
7058;BME280;3570;43.080;25.628;2023-06-22T03:28:50;-20019.50;;;19.48;100.00
7058;BME280;3570;43.080;25.628;2023-06-22T03:31:33;-20015.00;;;19.33;100.00
7058;BME280;3570;43.080;25.628;2023-06-22T03:34:17;-20009.19;;;19.13;100.00
7058;BME280;3570;43.080;25.628;2023-06-22T03:37:02;-20007.31;;;19.06;100.00
7058;BME280;3570;43.080;25.628;2023-06-22T03:39:47;-20004.13;;;18.95;100.00
7058;BME280;3570;43.080;25.628;2023-06-22T03:42:33;-19990.78;;;18.49;100.00
7058;BME280;3570;43.080;25.628;2023-06-22T03:45:18;-19999.03;;;18.77;100.00
7058;BME280;3570;43.080;25.628;2023-06-22T03:48:02;-20009.34;;;19.13;100.00
7058;BME280;3570;43.080;25.628;2023-06-22T03:50:46;-20010.38;;;19.17;100.00
7058;BME280;3570;43.080;25.628;2023-06-22T03:53:30;-20009.91;;;19.15;100.00
7058;BME280;3570;43.080;25.628;2023-06-22T03:56:14;-20026.91;;;19.74;100.00
7058;BME280;3570;43.080;25.628;2023-06-22T03:59:03;-20039.94;;;20.19;100.00
7058;BME280;3570;43.080;25.628;2023-06-22T04:01:48;-20036.63;;;20.08;100.00
7058;BME280;3570;43.080;25.628;2023-06-22T04:04:32;-20041.69;;;20.25;100.00
7058;BME280;3570;43.080;25.628;2023-06-22T04:07:17;-20046.47;;;20.42;100.00
7058;BME280;3570;43.080;25.628;2023-06-22T04:10:01;-20048.50;;;20.49;100.00
7058;BME280;3570;43.080;25.628;2023-06-22T04:12:45;-20054.16;;;20.69;100.00
7058;BME280;3570;43.080;25.628;2023-06-22T04:15:29;-20057.34;;;20.80;100.00
7058;BME280;3570;43.080;25.628;2023-06-22T04:18:13;-20061.53;;;20.94;100.00
7058;BME280;3570;43.080;25.628;2023-06-22T04:20:57;-20056.03;;;20.75;100.00
7058;BME280;3570;43.080;25.628;2023-06-22T04:23:41;-20069.50;;;21.22;100.00
7058;BME280;3570;43.080;25.628;2023-06-22T04:26:27;-20073.56;;;21.36;100.00
7058;BME280;3570;43.080;25.628;2023-06-22T04:29:11;-20071.38;;;21.28;100.00
7058;BME280;3570;43.080;25.628;2023-06-22T04:31:59;-20071.81;;;21.30;100.00
7058;BME280;3570;43.080;25.628;2023-06-22T04:34:46;-20074.88;;;21.40;100.00
7058;BME280;3570;43.080;25.628;2023-06-22T04:37:31;-20078.34;;;21.52;100.00
7058;BME280;3570;43.080;25.628;2023-06-22T04:40:15;-20080.81;;;21.61;100.00
7058;BME280;3570;43.080;25.628;2023-06-22T04:42:59;-20084.84;;;21.75;100.00
7058;BME280;3570;43.080;25.628;2023-06-22T04:45:46;-20085.16;;;21.76;100.00
7058;BME280;3570;43.080;25.628;2023-06-22T04:48:30;-20090.22;;;21.94;100.00
7058;BME280;3570;43.080;25.628;2023-06-22T04:51:17;-20095.13;;;22.11;100.00
7058;BME280;3570;43.080;25.628;2023-06-22T04:54:05;-20090.94;;;21.96;100.00
7058;BME280;3570;43.080;25.628;2023-06-22T04:56:50;-20092.66;;;22.02;100.00
7058;BME280;3570;43.080;25.628;2023-06-22T04:59:40;-20100.06;;;22.28;100.00
7058;BME280;3570;43.080;25.628;2023-06-22T05:02:25;-20099.19;;;22.25;100.00
7058;BME280;3570;43.080;25.628;2023-06-22T05:05:12;-20103.53;;;22.40;100.00
7058;BME280;3570;43.080;25.628;2023-06-22T05:08:00;-20098.59;;;22.23;100.00
7058;BME280;3570;43.080;25.628;2023-06-22T05:10:44;-20107.00;;;22.52;100.00
7058;BME280;3570;43.080;25.628;2023-06-22T05:13:29;-20108.16;;;22.56;100.00
7058;BME280;3570;43.080;25.628;2023-06-22T05:16:12;-20105.41;;;22.46;100.00
7058;BME280;3570;43.080;25.628;2023-06-22T05:18:56;-20113.38;;;22.74;100.00
7058;BME280;3570;43.080;25.628;2023-06-22T05:21:40;-20114.22;;;22.77;100.00
7058;BME280;3570;43.080;25.628;2023-06-22T05:24:24;-20115.97;;;22.83;100.00
7058;BME280;3570;43.080;25.628;2023-06-22T05:27:09;-20120.00;;;22.97;100.00
7058;BME280;3570;43.080;25.628;2023-06-22T05:29:53;-20120.44;;;22.99;100.00
7058;BME280;3570;43.080;25.628;2023-06-22T05:32:37;-20118.13;;;22.91;100.00
7058;BME280;3570;43.080;25.628;2023-06-22T05:35:21;-20122.75;;;23.07;100.00
7058;BME280;3570;43.080;25.628;2023-06-22T05:38:05;-20128.97;;;23.28;100.00
7058;BME280;3570;43.080;25.628;2023-06-22T05:40:49;-20128.09;;;23.25;100.00
7058;BME280;3570;43.080;25.628;2023-06-22T05:43:33;-20123.63;;;23.10;100.00
7058;BME280;3570;43.080;25.628;2023-06-22T05:46:18;-20114.38;;;22.78;100.00
7058;BME280;3570;43.080;25.628;2023-06-22T05:49:03;-20117.84;;;22.90;100.00
7058;BME280;3570;43.080;25.628;2023-06-22T05:51:47;-20121.31;;;23.02;100.00
7058;BME280;3570;43.080;25.628;2023-06-22T05:54:31;-20132.44;;;23.41;100.00
7058;BME280;3570;43.080;25.628;2023-06-22T05:57:15;-20132.72;;;23.42;100.00
7058;BME280;3570;43.080;25.628;2023-06-22T05:59:58;-20141.13;;;23.71;100.00
7058;BME280;3570;43.080;25.628;2023-06-22T06:02:42;-20143.44;;;23.79;100.00
7058;BME280;3570;43.080;25.628;2023-06-22T06:05:27;-20136.50;;;23.55;100.00
7058;BME280;3570;43.080;25.628;2023-06-22T06:08:11;-20150.78;;;24.04;100.00
7058;BME280;3570;43.080;25.628;2023-06-22T06:10:55;-20156.28;;;24.23;100.00
7058;BME280;3570;43.080;25.628;2023-06-22T06:13:40;-20154.13;;;24.16;100.00
7058;BME280;3570;43.080;25.628;2023-06-22T06:16:24;-20157.88;;;24.29;100.00
7058;BME280;3570;43.080;25.628;2023-06-22T06:19:09;-20166.53;;;24.59;100.00
7058;BME280;3570;43.080;25.628;2023-06-22T06:21:52;-20163.94;;;24.50;100.00
7058;BME280;3570;43.080;25.628;2023-06-22T06:24:36;-20167.25;;;24.62;100.00
7058;BME280;3570;43.080;25.628;2023-06-22T06:27:20;-20174.34;;;24.86;100.00
7058;BME280;3570;43.080;25.628;2023-06-22T06:30:05;-20171.44;;;24.76;100.00
7058;BME280;3570;43.080;25.628;2023-06-22T06:32:49;-20174.03;;;24.85;100.00
7058;BME280;3570;43.080;25.628;2023-06-22T06:35:34;-20178.94;;;25.02;100.00
7058;BME280;3570;43.080;25.628;2023-06-22T06:38:18;-20173.47;;;24.83;100.00
7058;BME280;3570;43.080;25.628;2023-06-22T06:41:02;-20201.59;;;25.81;100.00
7058;BME280;3570;43.080;25.628;2023-06-22T06:43:46;-20208.38;;;26.05;100.00
7058;BME280;3570;43.080;25.628;2023-06-22T06:46:30;-20213.44;;;26.23;100.00
7058;BME280;3570;43.080;25.628;2023-06-22T06:49:14;-20220.50;;;26.47;100.00
7058;BME280;3570;43.080;25.628;2023-06-22T06:51:58;-20221.63;;;26.51;100.00
7058;BME280;3570;43.080;25.628;2023-06-22T06:54:42;-20221.34;;;26.50;100.00
7058;BME280;3570;43.080;25.628;2023-06-22T06:57:26;-20229.00;;;26.77;100.00
7058;BME280;3570;43.080;25.628;2023-06-22T07:00:14;-20221.19;;;26.50;100.00
7058;BME280;3570;43.080;25.628;2023-06-22T07:02:59;-20200.44;;;25.77;100.00
7058;BME280;3570;43.080;25.628;2023-06-22T07:05:43;-20211.56;;;26.16;100.00
7058;BME280;3570;43.080;25.628;2023-06-22T07:08:26;-20218.19;;;26.39;100.00
7058;BME280;3570;43.080;25.628;2023-06-22T07:11:10;-20215.59;;;26.30;100.00
7058;BME280;3570;43.080;25.628;2023-06-22T07:13:54;-20221.19;;;26.50;100.00
7058;BME280;3570;43.080;25.628;2023-06-22T07:16:38;-20227.69;;;26.72;100.00
7058;BME280;3570;43.080;25.628;2023-06-22T07:19:26;-20232.88;;;26.90;100.00
7058;BME280;3570;43.080;25.628;2023-06-22T07:22:11;-20235.31;;;26.99;100.00
7058;BME280;3570;43.080;25.628;2023-06-22T07:24:55;-20246.28;;;27.37;99.14
7058;BME280;3570;43.080;25.628;2023-06-22T07:27:45;-20233.47;;;26.92;100.00
7058;BME280;3570;43.080;25.628;2023-06-22T07:30:33;-20243.69;;;27.28;100.00
7058;BME280;3570;43.080;25.628;2023-06-22T07:33:17;-20240.94;;;27.19;100.00
7058;BME280;3570;43.080;25.628;2023-06-22T07:36:01;-20244.69;;;27.32;100.00
7058;BME280;3570;43.080;25.628;2023-06-22T07:38:51;-20253.31;;;27.62;98.54
7058;BME280;3570;43.080;25.628;2023-06-22T07:41:35;-20249.72;;;27.49;97.58
7058;BME280;3570;43.080;25.628;2023-06-22T07:44:19;-20250.59;;;27.52;97.27
7058;BME280;3570;43.080;25.628;2023-06-22T07:47:03;-20263.97;;;27.99;96.88
7058;BME280;3570;43.080;25.628;2023-06-22T07:49:47;-20263.97;;;27.99;93.67
7058;BME280;3570;43.080;25.628;2023-06-22T07:52:32;-20262.09;;;27.92;92.47
7058;BME280;3570;43.080;25.628;2023-06-22T07:55:16;-20249.00;;;27.47;94.27
7058;BME280;3570;43.080;25.628;2023-06-22T07:58:00;-20251.31;;;27.55;96.26
7058;BME280;3570;43.080;25.628;2023-06-22T08:00:44;-20269.31;;;28.18;92.31
7058;BME280;3570;43.080;25.628;2023-06-22T08:03:28;-20274.34;;;28.35;92.08
7058;BME280;3570;43.080;25.628;2023-06-22T08:06:12;-20273.47;;;28.32;91.22
7058;BME280;3570;43.080;25.628;2023-06-22T08:08:56;-20266.84;;;28.09;88.67
7058;BME280;3570;43.080;25.628;2023-06-22T08:11:41;-20260.66;;;27.87;92.20
7058;BME280;3570;43.080;25.628;2023-06-22T08:14:26;-20245.69;;;27.35;90.76
7058;BME280;3570;43.080;25.628;2023-06-22T08:17:10;-20251.88;;;27.57;92.58
7058;BME280;3570;43.080;25.628;2023-06-22T08:19:55;-20259.50;;;27.83;91.66
7058;BME280;3570;43.080;25.628;2023-06-22T08:22:42;-20259.66;;;27.84;88.98
7058;BME280;3570;43.080;25.628;2023-06-22T08:25:26;-20268.16;;;28.14;90.58
7058;BME280;3570;43.080;25.628;2023-06-22T08:28:10;-20274.47;;;28.36;88.76
7058;BME280;3570;43.080;25.628;2023-06-22T08:30:54;-20285.25;;;28.73;82.55
7058;BME280;3570;43.080;25.628;2023-06-22T08:33:39;-20286.56;;;28.78;78.58
7058;BME280;3570;43.080;25.628;2023-06-22T08:36:24;-20280.94;;;28.58;80.56
7058;BME280;3570;43.080;25.628;2023-06-22T08:39:08;-20283.97;;;28.69;82.45
7058;BME280;3570;43.080;25.628;2023-06-22T08:41:52;-20282.09;;;28.62;81.25
7058;BME280;3570;43.080;25.628;2023-06-22T08:44:37;-20291.88;;;28.97;76.85
7058;BME280;3570;43.080;25.628;2023-06-22T08:47:21;-20302.81;;;29.35;73.43
7058;BME280;3570;43.080;25.628;2023-06-22T08:50:07;-20312.72;;;29.69;71.32
7058;BME280;3570;43.080;25.628;2023-06-22T08:52:52;-20318.88;;;29.91;70.96
7058;BME280;3570;43.080;25.628;2023-06-22T08:55:37;-20321.19;;;29.99;69.93
7058;BME280;3570;43.080;25.628;2023-06-22T08:58:21;-20327.50;;;30.21;69.98
7058;BME280;3570;43.080;25.628;2023-06-22T09:01:08;-20337.84;;;30.57;65.32
7058;BME280;3570;43.080;25.628;2023-06-22T09:03:52;-20334.53;;;30.46;68.38
7058;BME280;3570;43.080;25.628;2023-06-22T09:06:41;-20344.28;;;30.80;67.78
7058;BME280;3570;43.080;25.628;2023-06-22T09:09:28;-20349.91;;;31.00;68.71
7058;BME280;3570;43.080;25.628;2023-06-22T09:12:13;-20358.22;;;31.29;65.86
7058;BME280;3570;43.080;25.628;2023-06-22T09:14:57;-20358.22;;;31.29;64.83
7058;BME280;3570;43.080;25.628;2023-06-22T09:17:41;-20345.88;;;30.86;66.56
7058;BME280;3570;43.080;25.628;2023-06-22T09:20:25;-20353.03;;;31.11;67.21
7058;BME280;3570;43.080;25.628;2023-06-22T09:23:09;-20358.06;;;31.28;64.69
7058;BME280;3570;43.080;25.628;2023-06-22T09:25:53;-20350.19;;;31.01;63.83
7058;BME280;3570;43.080;25.628;2023-06-22T09:28:37;-20360.22;;;31.36;62.52
7058;BME280;3570;43.080;25.628;2023-06-22T09:31:21;-20375.13;;;31.88;61.42
7058;BME280;3570;43.080;25.628;2023-06-22T09:34:09;-20403.19;;;32.87;58.23
7058;BME280;3570;43.080;25.628;2023-06-22T09:36:53;-20430.81;;;33.84;52.51
7058;BME280;3570;43.080;25.628;2023-06-22T09:39:36;-20445.25;;;34.35;52.35
7058;BME280;3570;43.080;25.628;2023-06-22T09:42:20;-20450.69;;;34.54;52.76
7058;BME280;3570;43.080;25.628;2023-06-22T09:45:05;-20456.25;;;34.73;50.68
7058;BME280;3570;43.080;25.628;2023-06-22T09:47:49;-20448.69;;;34.47;50.45
7058;BME280;3570;43.080;25.628;2023-06-22T09:50:33;-20462.69;;;34.96;49.30
7058;BME280;3570;43.080;25.628;2023-06-22T09:53:17;-20493.78;;;36.06;47.47
7058;BME280;3570;43.080;25.628;2023-06-22T09:56:01;-20493.66;;;36.05;45.43
7058;BME280;3570;43.080;25.628;2023-06-22T09:58:46;-20517.75;;;36.90;43.66
7058;BME280;3570;43.080;25.628;2023-06-22T10:01:30;-20523.16;;;37.09;43.01
7058;BME280;3570;43.080;25.628;2023-06-22T10:04:14;-20542.94;;;37.79;42.06
7058;BME280;3570;43.080;25.628;2023-06-22T10:06:58;-20551.34;;;38.09;41.97
7058;BME280;3570;43.080;25.628;2023-06-22T10:09:42;-20562.44;;;38.48;40.30
7058;BME280;3570;43.080;25.628;2023-06-22T10:12:27;-20535.97;;;37.54;41.07
7058;BME280;3570;43.080;25.628;2023-06-22T10:15:11;-20558.16;;;38.33;39.48
7058;BME280;3570;43.080;25.628;2023-06-22T10:17:56;-20537.09;;;37.58;40.34
7058;BME280;3570;43.080;25.628;2023-06-22T10:20:40;-20558.31;;;38.33;38.87
7058;BME280;3570;43.080;25.628;2023-06-22T10:23:23;-20566.28;;;38.61;39.45
7058;BME280;3570;43.080;25.628;2023-06-22T10:26:07;-20533.13;;;37.44;39.08
7058;BME280;3570;43.080;25.628;2023-06-22T10:28:51;-20564.13;;;38.54;37.89
7058;BME280;3570;43.080;25.628;2023-06-22T10:31:35;-20586.31;;;39.32;36.70
7058;BME280;3570;43.080;25.628;2023-06-22T10:34:20;-20582.06;;;39.17;35.84
7058;BME280;3570;43.080;25.628;2023-06-22T10:37:04;-20573.66;;;38.88;35.92
7058;BME280;3570;43.080;25.628;2023-06-22T10:39:48;-20595.41;;;39.65;34.30
7058;BME280;3570;43.080;25.628;2023-06-22T10:42:32;-20588.88;;;39.41;32.97
7058;BME280;3570;43.080;25.628;2023-06-22T10:45:16;-20582.19;;;39.18;32.76
7058;BME280;3570;43.080;25.628;2023-06-22T10:48:00;-20591.13;;;39.49;33.11
7058;BME280;3570;43.080;25.628;2023-06-22T10:50:46;-20589.28;;;39.43;33.10
7058;BME280;3570;43.080;25.628;2023-06-22T10:53:32;-20590.28;;;39.46;32.82
7058;BME280;3570;43.080;25.628;2023-06-22T10:56:16;-20606.91;;;40.05;32.31
7058;BME280;3570;43.080;25.628;2023-06-22T10:59:00;-20581.06;;;39.14;34.31
7058;BME280;3570;43.080;25.628;2023-06-22T11:01:45;-20536.97;;;37.58;38.02
7058;BME280;3570;43.080;25.628;2023-06-22T11:04:29;-20508.63;;;36.58;40.23
7058;BME280;3570;43.080;25.628;2023-06-22T11:07:16;-20509.19;;;36.60;37.81
7058;BME280;3570;43.080;25.628;2023-06-22T11:10:00;-20546.34;;;37.91;36.22
7058;BME280;3570;43.080;25.628;2023-06-22T11:12:44;-20572.66;;;38.84;33.78
7058;BME280;3570;43.080;25.628;2023-06-22T11:15:28;-20591.84;;;39.52;32.73
7058;BME280;3570;43.080;25.628;2023-06-22T11:18:12;-20634.41;;;41.03;30.80
7058;BME280;3570;43.080;25.628;2023-06-22T11:20:56;-20639.09;;;41.19;28.07
7058;BME280;3570;43.080;25.628;2023-06-22T11:23:41;-20634.84;;;41.04;26.58
7058;BME280;3570;43.080;25.628;2023-06-22T11:26:26;-20628.31;;;40.81;27.01
7058;BME280;3570;43.080;25.628;2023-06-22T11:29:11;-20646.19;;;41.45;27.68
7058;BME280;3570;43.080;25.628;2023-06-22T11:31:55;-20656.66;;;41.82;26.33
7058;BME280;3570;43.080;25.628;2023-06-22T11:34:39;-20661.63;;;41.99;25.45
7058;BME280;3570;43.080;25.628;2023-06-22T11:37:23;-20638.97;;;41.19;25.87
7058;BME280;3570;43.080;25.628;2023-06-22T11:40:08;-20641.09;;;41.27;26.82
7058;BME280;3570;43.080;25.628;2023-06-22T11:42:52;-20643.91;;;41.37;27.40
7058;BME280;3570;43.080;25.628;2023-06-22T11:45:36;-20631.16;;;40.91;26.44
7058;BME280;3570;43.080;25.628;2023-06-22T11:48:20;-20625.06;;;40.70;27.31
7058;BME280;3570;43.080;25.628;2023-06-22T11:51:04;-20625.78;;;40.72;27.30
7058;BME280;3570;43.080;25.628;2023-06-22T11:53:50;-20647.88;;;41.51;26.65
7058;BME280;3570;43.080;25.628;2023-06-22T11:56:34;-20649.28;;;41.56;26.25
7058;BME280;3570;43.080;25.628;2023-06-22T11:59:18;-20661.75;;;42.00;25.60
7058;BME280;3570;43.080;25.628;2023-06-22T12:02:02;-20646.31;;;41.45;25.90
7058;BME280;3570;43.080;25.628;2023-06-22T12:04:47;-20632.56;;;40.96;27.07
7058;BME280;3570;43.080;25.628;2023-06-22T12:07:31;-20655.66;;;41.78;27.17
7058;BME280;3570;43.080;25.628;2023-06-22T12:10:16;-20638.81;;;41.18;26.85
7058;BME280;3570;43.080;25.628;2023-06-22T12:13:00;-20679.44;;;42.63;25.40
7058;BME280;3570;43.080;25.628;2023-06-22T12:15:45;-20662.75;;;42.03;25.89
7058;BME280;3570;43.080;25.628;2023-06-22T12:18:29;-20655.53;;;41.78;25.89
7058;BME280;3570;43.080;25.628;2023-06-22T12:21:13;-20620.94;;;40.55;26.23
7058;BME280;3570;43.080;25.628;2023-06-22T12:23:57;-20632.56;;;40.96;25.89
7058;BME280;3570;43.080;25.628;2023-06-22T12:26:41;-20648.03;;;41.51;25.78
7058;BME280;3570;43.080;25.628;2023-06-22T12:29:25;-20635.69;;;41.07;26.39
7058;BME280;3570;43.080;25.628;2023-06-22T12:32:09;-20666.16;;;42.16;26.47
7058;BME280;3570;43.080;25.628;2023-06-22T12:34:53;-20692.19;;;43.08;25.07
7058;BME280;3570;43.080;25.628;2023-06-22T12:37:37;-20700.81;;;43.39;24.31
7058;BME280;3570;43.080;25.628;2023-06-22T12:40:21;-20695.00;;;43.18;24.36
7058;BME280;3570;43.080;25.628;2023-06-22T12:43:05;-20660.47;;;41.95;25.80
7058;BME280;3570;43.080;25.628;2023-06-22T12:45:51;-20648.72;;;41.54;26.44
7058;BME280;3570;43.080;25.628;2023-06-22T12:48:35;-20694.84;;;43.18;24.58
7058;BME280;3570;43.080;25.628;2023-06-22T12:51:25;-20692.47;;;43.09;24.49
7058;BME280;3570;43.080;25.628;2023-06-22T12:54:10;-20704.19;;;43.51;23.81
7058;BME280;3570;43.080;25.628;2023-06-22T12:56:54;-20744.41;;;44.94;23.80
7058;BME280;3570;43.080;25.628;2023-06-22T12:59:39;-20755.00;;;45.32;23.03
7058;BME280;3570;43.080;25.628;2023-06-22T13:02:23;-20757.66;;;45.41;21.53
7058;BME280;3570;43.080;25.628;2023-06-22T13:05:08;-20725.94;;;44.28;22.76
7058;BME280;3570;43.080;25.628;2023-06-22T13:07:52;-20744.00;;;44.93;22.94
7058;BME280;3570;43.080;25.628;2023-06-22T13:10:36;-20726.50;;;44.30;23.46
7058;BME280;3570;43.080;25.628;2023-06-22T13:13:21;-20756.41;;;45.37;22.43
7058;BME280;3570;43.080;25.628;2023-06-22T13:16:04;-20744.72;;;44.95;23.36
7058;BME280;3570;43.080;25.628;2023-06-22T13:18:49;-20745.97;;;45.00;23.49
7058;BME280;3570;43.080;25.628;2023-06-22T13:21:33;-20761.19;;;45.54;23.15
7058;BME280;3570;43.080;25.628;2023-06-22T13:24:17;-20748.22;;;45.08;22.79
7058;BME280;3570;43.080;25.628;2023-06-22T13:27:01;-20729.03;;;44.39;23.28
7058;BME280;3570;43.080;25.628;2023-06-22T13:29:45;-20715.63;;;43.92;23.97
7058;BME280;3570;43.080;25.628;2023-06-22T13:32:29;-20745.53;;;44.98;23.37
7058;BME280;3570;43.080;25.628;2023-06-22T13:35:13;-20734.25;;;44.58;23.44
7058;BME280;3570;43.080;25.628;2023-06-22T13:37:58;-20703.06;;;43.47;24.21
7058;BME280;3570;43.080;25.628;2023-06-22T13:40:42;-20690.06;;;43.00;24.48
7058;BME280;3570;43.080;25.628;2023-06-22T13:43:27;-20696.56;;;43.24;24.21
7058;BME280;3570;43.080;25.628;2023-06-22T13:46:11;-20677.47;;;42.56;25.45
7058;BME280;3570;43.080;25.628;2023-06-22T13:48:55;-20625.78;;;40.72;27.31
7058;BME280;3570;43.080;25.628;2023-06-22T13:51:39;-20592.28;;;39.54;29.47
7058;BME280;3570;43.080;25.628;2023-06-22T13:54:23;-20555.47;;;38.23;30.85
7058;BME280;3570;43.080;25.628;2023-06-22T13:57:07;-20567.84;;;38.67;30.86
7058;BME280;3570;43.080;25.628;2023-06-22T13:59:51;-20615.84;;;40.37;29.15
7058;BME280;3570;43.080;25.628;2023-06-22T14:02:35;-20664.31;;;42.09;26.33
7058;BME280;3570;43.080;25.628;2023-06-22T14:05:19;-20693.16;;;43.12;25.22
7058;BME280;3570;43.080;25.628;2023-06-22T14:08:04;-20710.97;;;43.75;24.51
7058;BME280;3570;43.080;25.628;2023-06-22T14:10:47;-20741.03;;;44.82;23.88
7058;BME280;3570;43.080;25.628;2023-06-22T14:13:31;-20744.56;;;44.95;23.63
7058;BME280;3570;43.080;25.628;2023-06-22T14:16:16;-20729.75;;;44.42;24.08
7058;BME280;3570;43.080;25.628;2023-06-22T14:19:00;-20747.94;;;45.07;24.07
7058;BME280;3570;43.080;25.628;2023-06-22T14:21:44;-20780.50;;;46.23;23.13
7058;BME280;3570;43.080;25.628;2023-06-22T14:24:28;-20762.03;;;45.57;23.62
7058;BME280;3570;43.080;25.628;2023-06-22T14:27:12;-20758.78;;;45.45;23.78
7058;BME280;3570;43.080;25.628;2023-06-22T14:29:56;-20775.56;;;46.05;23.02
7058;BME280;3570;43.080;25.628;2023-06-22T14:32:43;-20777.25;;;46.11;22.89
7058;BME280;3570;43.080;25.628;2023-06-22T14:35:27;-20797.22;;;46.83;22.74